sensor_id;sensor_type;location;lat;lon;timestamp;pressure;altitude;pressure_sealevel;temperature;humidity
62895;BME280;49204;44.916;37.998;2023-02-23T00:01:14;101463.69;;;2.16;70.71
62895;BME280;49204;44.916;37.998;2023-02-23T00:03:43;101445.49;;;2.16;70.69
62895;BME280;49204;44.916;37.998;2023-02-23T00:06:12;101442.89;;;2.16;70.61
62895;BME280;49204;44.916;37.998;2023-02-23T00:08:39;101443.75;;;2.17;70.62
62895;BME280;49204;44.916;37.998;2023-02-23T00:11:09;101446.77;;;2.13;70.75
62895;BME280;49204;44.916;37.998;2023-02-23T00:13:40;101450.67;;;2.15;70.68
62895;BME280;49204;44.916;37.998;2023-02-23T00:16:13;101449.36;;;2.13;70.70
62895;BME280;49204;44.916;37.998;2023-02-23T00:18:45;101445.42;;;2.10;70.81
62895;BME280;49204;44.916;37.998;2023-02-23T00:21:15;101439.81;;;2.09;70.83
62895;BME280;49204;44.916;37.998;2023-02-23T00:23:53;101446.73;;;2.10;70.80
62895;BME280;49204;44.916;37.998;2023-02-23T00:26:24;101443.32;;;2.14;70.78
62895;BME280;49204;44.916;37.998;2023-02-23T00:28:52;101453.73;;;2.19;70.71
62895;BME280;49204;44.916;37.998;2023-02-23T00:31:21;101451.14;;;2.20;70.68
62895;BME280;49204;44.916;37.998;2023-02-23T00:33:51;101452.02;;;2.22;70.66
62895;BME280;49204;44.916;37.998;2023-02-23T00:36:20;101455.05;;;2.25;70.65
62895;BME280;49204;44.916;37.998;2023-02-23T00:38:51;101450.75;;;2.25;70.63
62895;BME280;49204;44.916;37.998;2023-02-23T00:41:19;101450.77;;;2.27;70.66
62895;BME280;49204;44.916;37.998;2023-02-23T00:43:58;101442.53;;;2.27;70.68
62895;BME280;49204;44.916;37.998;2023-02-23T00:46:27;101444.25;;;2.28;70.67
62895;BME280;49204;44.916;37.998;2023-02-23T00:48:56;101440.36;;;2.28;70.77
62895;BME280;49204;44.916;37.998;2023-02-23T00:51:25;101442.97;;;2.27;70.77
62895;BME280;49204;44.916;37.998;2023-02-23T00:53:56;101442.95;;;2.25;70.72
62895;BME280;49204;44.916;37.998;2023-02-23T00:56:26;101448.14;;;2.24;70.66
62895;BME280;49204;44.916;37.998;2023-02-23T00:58:54;101438.58;;;2.21;70.70
62895;BME280;49204;44.916;37.998;2023-02-23T01:01:24;101445.09;;;2.20;70.73
62895;BME280;49204;44.916;37.998;2023-02-23T01:03:52;101442.03;;;2.19;70.72
62895;BME280;49204;44.916;37.998;2023-02-23T01:06:19;101443.78;;;2.20;70.73
62895;BME280;49204;44.916;37.998;2023-02-23T01:08:48;101446.78;;;2.15;70.76
62895;BME280;49204;44.916;37.998;2023-02-23T01:11:20;101450.20;;;2.09;70.86
62895;BME280;49204;44.916;37.998;2023-02-23T01:13:50;101444.59;;;2.11;70.87
62895;BME280;49204;44.916;37.998;2023-02-23T01:16:18;101448.92;;;2.13;70.86
62895;BME280;49204;44.916;37.998;2023-02-23T01:18:47;101448.03;;;2.10;70.87
62895;BME280;49204;44.916;37.998;2023-02-23T01:21:20;101459.72;;;2.10;70.82
62895;BME280;49204;44.916;37.998;2023-02-23T01:23:47;101453.67;;;2.11;70.86
62895;BME280;49204;44.916;37.998;2023-02-23T01:26:16;101450.63;;;2.10;70.96
62895;BME280;49204;44.916;37.998;2023-02-23T01:28:52;101457.16;;;2.13;70.97
62895;BME280;49204;44.916;37.998;2023-02-23T01:31:17;101454.57;;;2.15;70.99
62895;BME280;49204;44.916;37.998;2023-02-23T01:33:45;101459.34;;;2.17;71.01
62895;BME280;49204;44.916;37.998;2023-02-23T01:36:12;101468.84;;;2.13;71.10
62895;BME280;49204;44.916;37.998;2023-02-23T01:38:40;101458.00;;;2.12;71.10
62895;BME280;49204;44.916;37.998;2023-02-23T01:41:08;101457.16;;;2.13;71.08
62895;BME280;49204;44.916;37.998;2023-02-23T01:43:52;101454.98;;;2.11;71.14
62895;BME280;49204;44.916;37.998;2023-02-23T01:46:05;101458.00;;;2.12;71.15
62895;BME280;49204;44.916;37.998;2023-02-23T01:48:34;101462.79;;;2.12;71.20
62895;BME280;49204;44.916;37.998;2023-02-23T01:51:14;101475.34;;;2.13;71.23
62895;BME280;49204;44.916;37.998;2023-02-23T01:53:47;101479.27;;;2.16;71.12
62895;BME280;49204;44.916;37.998;2023-02-23T01:56:14;101487.06;;;2.19;71.09
62895;BME280;49204;44.916;37.998;2023-02-23T01:58:46;101486.64;;;2.21;71.10
62895;BME280;49204;44.916;37.998;2023-02-23T02:01:17;101483.64;;;2.22;71.09
62895;BME280;49204;44.916;37.998;2023-02-23T02:03:54;101493.17;;;2.24;71.12
62895;BME280;49204;44.916;37.998;2023-02-23T02:06:23;101489.73;;;2.25;71.00
62895;BME280;49204;44.916;37.998;2023-02-23T02:08:52;101497.53;;;2.25;70.93
62895;BME280;49204;44.916;37.998;2023-02-23T02:11:21;101513.14;;;2.27;70.94
62895;BME280;49204;44.916;37.998;2023-02-23T02:13:55;101517.91;;;2.29;70.93
62895;BME280;49204;44.916;37.998;2023-02-23T02:19:17;101522.64;;;2.26;70.96
62895;BME280;49204;44.916;37.998;2023-02-23T02:29:16;101522.56;;;2.14;71.40
62895;BME280;49204;44.916;37.998;2023-02-23T02:40:10;101532.50;;;2.13;71.41
62895;BME280;49204;44.916;37.998;2023-02-23T02:42:35;101530.36;;;2.17;71.30
62895;BME280;49204;44.916;37.998;2023-02-23T02:50:14;101543.42;;;2.23;71.12
62895;BME280;49204;44.916;37.998;2023-02-23T02:52:57;101539.95;;;2.24;71.09
62895;BME280;49204;44.916;37.998;2023-02-23T02:55:21;101543.42;;;2.23;71.04
62895;BME280;49204;44.916;37.998;2023-02-23T02:57:50;101540.33;;;2.19;71.03
62895;BME280;49204;44.916;37.998;2023-02-23T03:00:21;101541.63;;;2.16;71.11
62895;BME280;49204;44.916;37.998;2023-02-23T03:03:52;101544.17;;;2.11;71.10
62895;BME280;49204;44.916;37.998;2023-02-23T03:05:55;101547.12;;;2.02;71.27
62895;BME280;49204;44.916;37.998;2023-02-23T03:11:31;101552.28;;;1.99;71.54
62895;BME280;49204;44.916;37.998;2023-02-23T03:17:30;101555.74;;;1.99;71.46
62895;BME280;49204;44.916;37.998;2023-02-23T03:20:24;101557.06;;;2.01;71.42
62895;BME280;49204;44.916;37.998;2023-02-23T03:26:12;101559.23;;;2.00;71.44
62895;BME280;49204;44.916;37.998;2023-02-23T03:29:19;101561.86;;;2.04;71.42
62895;BME280;49204;44.916;37.998;2023-02-23T03:32:09;101554.05;;;2.03;71.34
62895;BME280;49204;44.916;37.998;2023-02-23T03:35:11;101560.54;;;2.03;71.37
62895;BME280;49204;44.916;37.998;2023-02-23T03:37:54;101567.48;;;2.04;71.35
62895;BME280;49204;44.916;37.998;2023-02-23T03:40:40;101557.94;;;2.03;71.38
62895;BME280;49204;44.916;37.998;2023-02-23T03:43:29;101562.75;;;2.05;71.32
62895;BME280;49204;44.916;37.998;2023-02-23T03:46:14;101562.75;;;2.05;71.19
62895;BME280;49204;44.916;37.998;2023-02-23T03:49:03;101566.63;;;2.03;71.21
62895;BME280;49204;44.916;37.998;2023-02-23T03:51:50;101560.11;;;2.02;71.12
62895;BME280;49204;44.916;37.998;2023-02-23T03:54:40;101567.86;;;1.96;71.21
62895;BME280;49204;44.916;37.998;2023-02-23T03:57:26;101570.84;;;1.93;71.35
62895;BME280;49204;44.916;37.998;2023-02-23T04:00:16;101577.79;;;1.95;71.32
62895;BME280;49204;44.916;37.998;2023-02-23T04:03:01;101575.23;;;1.98;71.36
62895;BME280;49204;44.916;37.998;2023-02-23T04:05:47;101583.47;;;2.00;71.25
62895;BME280;49204;44.916;37.998;2023-02-23T04:08:35;101579.16;;;2.02;71.23
62895;BME280;49204;44.916;37.998;2023-02-23T04:11:38;101581.78;;;2.04;71.22
62895;BME280;49204;44.916;37.998;2023-02-23T04:14:23;101579.22;;;2.07;71.18
62895;BME280;49204;44.916;37.998;2023-02-23T04:16:50;101585.72;;;2.10;71.10
62895;BME280;49204;44.916;37.998;2023-02-23T04:19:18;101584.88;;;2.11;71.03
62895;BME280;49204;44.916;37.998;2023-02-23T04:21:46;101588.31;;;2.07;70.99
62895;BME280;49204;44.916;37.998;2023-02-23T04:24:13;101584.80;;;2.02;71.03
62895;BME280;49204;44.916;37.998;2023-02-23T04:26:41;101599.03;;;1.99;71.10
62895;BME280;49204;44.916;37.998;2023-02-23T04:29:10;101601.17;;;1.95;71.07
62895;BME280;49204;44.916;37.998;2023-02-23T04:31:38;101598.08;;;1.89;70.98
62895;BME280;49204;44.916;37.998;2023-02-23T04:34:07;101597.59;;;1.83;70.98
62895;BME280;49204;44.916;37.998;2023-02-23T04:36:35;101604.92;;;1.82;70.87
62895;BME280;49204;44.916;37.998;2023-02-23T04:39:02;101599.72;;;1.79;70.93
62895;BME280;49204;44.916;37.998;2023-02-23T04:41:30;101614.02;;;1.82;70.90
62895;BME280;49204;44.916;37.998;2023-02-23T04:43:58;101614.06;;;1.85;70.91
62895;BME280;49204;44.916;37.998;2023-02-23T04:46:25;101620.16;;;1.89;70.87
62895;BME280;49204;44.916;37.998;2023-02-23T04:48:53;101629.69;;;1.88;70.80
62895;BME280;49204;44.916;37.998;2023-02-23T04:51:21;101641.17;;;1.73;70.64
62895;BME280;49204;44.916;37.998;2023-02-23T04:53:48;101647.90;;;1.56;70.80
62895;BME280;49204;44.916;37.998;2023-02-23T04:56:16;101648.14;;;1.41;70.92
62895;BME280;49204;44.916;37.998;2023-02-23T04:58:44;101665.72;;;1.31;71.09
62895;BME280;49204;44.916;37.998;2023-02-23T05:01:12;101661.70;;;1.22;71.22
62895;BME280;49204;44.916;37.998;2023-02-23T05:03:40;101665.03;;;1.11;71.29
62895;BME280;49204;44.916;37.998;2023-02-23T05:06:08;101679.59;;;1.02;71.39
62895;BME280;49204;44.916;37.998;2023-02-23T05:08:35;101683.80;;;0.95;71.43
62895;BME280;49204;44.916;37.998;2023-02-23T05:11:04;101692.27;;;0.85;71.50
62895;BME280;49204;44.916;37.998;2023-02-23T05:13:32;101701.59;;;0.73;71.46
62895;BME280;49204;44.916;37.998;2023-02-23T05:16:00;101707.08;;;0.65;71.38
62895;BME280;49204;44.916;37.998;2023-02-23T05:18:28;101714.70;;;0.56;71.31
62895;BME280;49204;44.916;37.998;2023-02-23T05:21:03;101723.14;;;0.46;71.25
62895;BME280;49204;44.916;37.998;2023-02-23T05:23:32;101727.31;;;0.37;71.33
62895;BME280;49204;44.916;37.998;2023-02-23T05:26:01;101731.06;;;0.31;71.16
62895;BME280;49204;44.916;37.998;2023-02-23T05:28:29;101727.47;;;0.23;71.06
62895;BME280;49204;44.916;37.998;2023-02-23T05:30:57;101734.27;;;0.18;71.06
62895;BME280;49204;44.916;37.998;2023-02-23T05:33:25;101743.23;;;0.12;71.05
62895;BME280;49204;44.916;37.998;2023-02-23T05:35:53;101745.20;;;0.03;71.18
62895;BME280;49204;44.916;37.998;2023-02-23T05:38:21;101755.13;;;0.02;71.16
62895;BME280;49204;44.916;37.998;2023-02-23T05:40:48;101758.07;;;-0.02;71.16
62895;BME280;49204;44.916;37.998;2023-02-23T05:43:16;101768.35;;;-0.05;71.15
62895;BME280;49204;44.916;37.998;2023-02-23T05:45:44;101766.20;;;-0.05;71.18
62895;BME280;49204;44.916;37.998;2023-02-23T05:48:12;101770.47;;;-0.07;71.26
62895;BME280;49204;44.916;37.998;2023-02-23T05:50:40;101775.14;;;-0.10;71.23
62895;BME280;49204;44.916;37.998;2023-02-23T05:53:07;101774.70;;;-0.11;71.30
62895;BME280;49204;44.916;37.998;2023-02-23T05:55:36;101772.94;;;-0.12;71.37
62895;BME280;49204;44.916;37.998;2023-02-23T05:58:03;101777.61;;;-0.16;71.22
62895;BME280;49204;44.916;37.998;2023-02-23T06:00:32;101783.22;;;-0.15;71.34
62895;BME280;49204;44.916;37.998;2023-02-23T06:03:00;101781.93;;;-0.15;71.41
62895;BME280;49204;44.916;37.998;2023-02-23T06:05:28;101782.86;;;-0.13;71.36
62895;BME280;49204;44.916;37.998;2023-02-23T06:07:55;101788.98;;;-0.08;71.27
62895;BME280;49204;44.916;37.998;2023-02-23T06:10:23;101799.42;;;-0.05;71.20
62895;BME280;49204;44.916;37.998;2023-02-23T06:12:51;101803.78;;;-0.04;71.24
62895;BME280;49204;44.916;37.998;2023-02-23T06:15:19;101806.29;;;-0.07;71.28
62895;BME280;49204;44.916;37.998;2023-02-23T06:17:47;101806.59;;;-0.12;71.25
62895;BME280;49204;44.916;37.998;2023-02-23T06:20:14;101809.11;;;-0.16;71.20
62895;BME280;49204;44.916;37.998;2023-02-23T06:22:42;101816.23;;;-0.25;71.24
62895;BME280;49204;44.916;37.998;2023-02-23T06:25:10;101819.65;;;-0.26;71.26
62895;BME280;49204;44.916;37.998;2023-02-23T06:27:38;101815.33;;;-0.27;71.19
62895;BME280;49204;44.916;37.998;2023-02-23T06:30:06;101819.65;;;-0.26;71.16
62895;BME280;49204;44.916;37.998;2023-02-23T06:32:35;101834.74;;;-0.27;71.13
62895;BME280;49204;44.916;37.998;2023-02-23T06:35:05;101836.81;;;-0.31;71.08
62895;BME280;49204;44.916;37.998;2023-02-23T06:37:34;101835.39;;;-0.36;71.03
62895;BME280;49204;44.916;37.998;2023-02-23T06:40:03;101836.26;;;-0.35;71.01
62895;BME280;49204;44.916;37.998;2023-02-23T06:42:31;101846.27;;;-0.32;71.08
62895;BME280;49204;44.916;37.998;2023-02-23T06:45:00;101851.56;;;-0.27;70.91
62895;BME280;49204;44.916;37.998;2023-02-23T06:47:28;101853.38;;;-0.23;70.79
62895;BME280;49204;44.916;37.998;2023-02-23T06:49:56;101854.67;;;-0.23;70.65
62895;BME280;49204;44.916;37.998;2023-02-23T06:52:25;101857.69;;;-0.24;70.65
62895;BME280;49204;44.916;37.998;2023-02-23T06:54:53;101865.16;;;-0.17;70.73
62895;BME280;49204;44.916;37.998;2023-02-23T06:57:21;101864.03;;;-0.09;70.52
62895;BME280;49204;44.916;37.998;2023-02-23T06:59:48;101869.30;;;-0.06;70.51
62895;BME280;49204;44.916;37.998;2023-02-23T07:02:16;101875.89;;;-0.02;70.38
62895;BME280;49204;44.916;37.998;2023-02-23T07:04:44;101875.42;;;-0.03;70.17
62895;BME280;49204;44.916;37.998;2023-02-23T07:07:12;101875.46;;;-0.01;70.19
62895;BME280;49204;44.916;37.998;2023-02-23T07:09:39;101882.88;;;0.03;70.22
62895;BME280;49204;44.916;37.998;2023-02-23T07:12:09;101882.88;;;0.03;70.11
62895;BME280;49204;44.916;37.998;2023-02-23T07:14:36;101890.64;;;0.03;70.18
62895;BME280;49204;44.916;37.998;2023-02-23T07:17:05;101886.80;;;0.04;70.17
62895;BME280;49204;44.916;37.998;2023-02-23T07:19:33;101893.88;;;0.11;70.09
62895;BME280;49204;44.916;37.998;2023-02-23T07:22:01;101884.94;;;0.17;69.90
62895;BME280;49204;44.916;37.998;2023-02-23T07:24:30;101888.94;;;0.24;69.74
62895;BME280;49204;44.916;37.998;2023-02-23T07:26:58;101888.74;;;0.33;69.71
62895;BME280;49204;44.916;37.998;2023-02-23T07:29:25;101891.30;;;0.52;69.75
62895;BME280;49204;44.916;37.998;2023-02-23T07:31:56;101883.85;;;0.69;69.48
62895;BME280;49204;44.916;37.998;2023-02-23T07:34:24;101891.02;;;0.83;69.21
62895;BME280;49204;44.916;37.998;2023-02-23T07:36:51;101894.77;;;0.97;69.03
62895;BME280;49204;44.916;37.998;2023-02-23T07:39:19;101896.70;;;1.07;68.78
62895;BME280;49204;44.916;37.998;2023-02-23T07:41:47;101891.55;;;1.10;68.62
62895;BME280;49204;44.916;37.998;2023-02-23T07:44:18;101899.76;;;1.10;68.52
62895;BME280;49204;44.916;37.998;2023-02-23T07:46:46;101902.68;;;1.05;68.51
62895;BME280;49204;44.916;37.998;2023-02-23T07:49:15;101897.06;;;1.04;68.31
62895;BME280;49204;44.916;37.998;2023-02-23T07:51:42;101900.30;;;1.15;68.42
62895;BME280;49204;44.916;37.998;2023-02-23T07:54:11;101903.92;;;1.25;68.38
62895;BME280;49204;44.916;37.998;2023-02-23T07:56:39;101904.02;;;1.30;68.15
62895;BME280;49204;44.916;37.998;2023-02-23T07:59:06;101912.67;;;1.30;68.14
62895;BME280;49204;44.916;37.998;2023-02-23T08:01:34;101921.28;;;1.28;68.05
62895;BME280;49204;44.916;37.998;2023-02-23T08:04:02;101919.31;;;1.16;67.94
62895;BME280;49204;44.916;37.998;2023-02-23T08:06:30;101917.45;;;1.07;67.85
62895;BME280;49204;44.916;37.998;2023-02-23T08:08:58;101918.97;;;0.98;67.74
62895;BME280;49204;44.916;37.998;2023-02-23T08:11:26;101922.50;;;1.01;67.77
62895;BME280;49204;44.916;37.998;2023-02-23T08:13:57;101922.28;;;1.12;67.93
62895;BME280;49204;44.916;37.998;2023-02-23T08:16:27;101926.34;;;1.22;67.68
62895;BME280;49204;44.916;37.998;2023-02-23T08:18:56;101931.09;;;1.21;67.37
62895;BME280;49204;44.916;37.998;2023-02-23T08:21:24;101926.96;;;1.08;67.03
62895;BME280;49204;44.916;37.998;2023-02-23T08:23:53;101934.64;;;1.02;67.14
62895;BME280;49204;44.916;37.998;2023-02-23T08:26:21;101936.66;;;0.95;67.10
62895;BME280;49204;44.916;37.998;2023-02-23T08:28:51;101940.00;;;0.89;67.11
62895;BME280;49204;44.916;37.998;2023-02-23T08:31:19;101943.78;;;0.85;67.26
62895;BME280;49204;44.916;37.998;2023-02-23T08:33:48;101942.77;;;0.76;67.23
62895;BME280;49204;44.916;37.998;2023-02-23T08:36:16;101944.85;;;0.72;67.42
62895;BME280;49204;44.916;37.998;2023-02-23T08:38:46;101943.95;;;0.70;67.73
62895;BME280;49204;44.916;37.998;2023-02-23T08:41:14;101945.64;;;0.68;67.76
62895;BME280;49204;44.916;37.998;2023-02-23T08:43:42;101953.77;;;0.66;67.58
62895;BME280;49204;44.916;37.998;2023-02-23T08:46:11;101959.78;;;0.64;67.71
62895;BME280;49204;44.916;37.998;2023-02-23T08:48:39;101960.99;;;0.59;67.72
62895;BME280;49204;44.916;37.998;2023-02-23T08:51:07;101964.80;;;0.56;67.95
62895;BME280;49204;44.916;37.998;2023-02-23T08:53:35;101967.40;;;0.56;68.07
62895;BME280;49204;44.916;37.998;2023-02-23T08:56:03;101970.81;;;0.55;67.96
62895;BME280;49204;44.916;37.998;2023-02-23T08:58:32;101968.18;;;0.52;67.82
62895;BME280;49204;44.916;37.998;2023-02-23T09:01:02;101973.72;;;0.50;67.78
62895;BME280;49204;44.916;37.998;2023-02-23T09:03:29;101977.56;;;0.47;67.64
62895;BME280;49204;44.916;37.998;2023-02-23T09:06:03;101976.58;;;0.42;67.66
62895;BME280;49204;44.916;37.998;2023-02-23T09:08:26;101983.02;;;0.40;67.89
62895;BME280;49204;44.916;37.998;2023-02-23T09:10:54;101984.42;;;0.45;68.07
62895;BME280;49204;44.916;37.998;2023-02-23T09:13:22;101976.78;;;0.51;67.97
62895;BME280;49204;44.916;37.998;2023-02-23T09:15:50;101974.74;;;0.56;67.29
62895;BME280;49204;44.916;37.998;2023-02-23T09:18:18;101983.85;;;0.58;67.20
62895;BME280;49204;44.916;37.998;2023-02-23T09:20:45;101973.41;;;0.55;67.43
62895;BME280;49204;44.916;37.998;2023-02-23T09:23:13;101982.04;;;0.54;66.31
62895;BME280;49204;44.916;37.998;2023-02-23T09:25:41;101981.66;;;0.56;67.11
62895;BME280;49204;44.916;37.998;2023-02-23T09:28:13;101978.79;;;0.64;67.25
62895;BME280;49204;44.916;37.998;2023-02-23T09:30:42;101977.06;;;0.63;66.83
62895;BME280;49204;44.916;37.998;2023-02-23T09:33:10;101988.41;;;0.70;66.73
62895;BME280;49204;44.916;37.998;2023-02-23T09:35:38;101982.67;;;0.85;66.96
62895;BME280;49204;44.916;37.998;2023-02-23T09:38:06;101987.09;;;1.09;66.78
62895;BME280;49204;44.916;37.998;2023-02-23T09:40:36;101984.17;;;1.38;66.44
62895;BME280;49204;44.916;37.998;2023-02-23T09:43:05;101988.80;;;1.54;66.04
62895;BME280;49204;44.916;37.998;2023-02-23T09:45:41;101983.50;;;1.72;65.51
62895;BME280;49204;44.916;37.998;2023-02-23T09:48:13;101987.37;;;1.96;65.46
62895;BME280;49204;44.916;37.998;2023-02-23T09:50:52;101981.73;;;2.54;65.47
62895;BME280;49204;44.916;37.998;2023-02-23T09:53:25;101987.34;;;3.60;63.36
62895;BME280;49204;44.916;37.998;2023-02-23T09:55:53;101990.42;;;3.67;63.16
62895;BME280;49204;44.916;37.998;2023-02-23T09:58:31;101984.02;;;3.33;62.49
62895;BME280;49204;44.916;37.998;2023-02-23T10:03:40;101982.45;;;2.74;63.18
62895;BME280;49204;44.916;37.998;2023-02-23T10:06:09;101988.23;;;2.54;63.64
62895;BME280;49204;44.916;37.998;2023-02-23T10:08:54;101986.86;;;2.48;64.02
62895;BME280;49204;44.916;37.998;2023-02-23T10:16:44;101978.91;;;3.89;62.51
62895;BME280;49204;44.916;37.998;2023-02-23T10:19:19;101976.11;;;4.94;60.68
62895;BME280;49204;44.916;37.998;2023-02-23T10:21:44;101979.96;;;4.82;60.95
62895;BME280;49204;44.916;37.998;2023-02-23T10:24:19;101977.06;;;4.33;61.13
62895;BME280;49204;44.916;37.998;2023-02-23T10:26:52;101983.20;;;3.83;61.03
62895;BME280;49204;44.916;37.998;2023-02-23T10:29:31;101988.27;;;3.26;61.50
62895;BME280;49204;44.916;37.998;2023-02-23T10:31:59;101991.33;;;2.91;60.20
62895;BME280;49204;44.916;37.998;2023-02-23T10:34:28;101983.14;;;2.62;62.33
62895;BME280;49204;44.916;37.998;2023-02-23T10:36:58;101985.72;;;2.59;62.53
62895;BME280;49204;44.916;37.998;2023-02-23T10:39:30;101979.62;;;2.58;62.83
62895;BME280;49204;44.916;37.998;2023-02-23T10:42:01;101983.14;;;2.60;61.90
62895;BME280;49204;44.916;37.998;2023-02-23T10:44:28;101978.85;;;2.65;61.72
62895;BME280;49204;44.916;37.998;2023-02-23T10:47:05;101981.31;;;2.86;61.06
62895;BME280;49204;44.916;37.998;2023-02-23T10:49:27;101987.76;;;3.19;61.27
62895;BME280;49204;44.916;37.998;2023-02-23T10:51:56;101981.59;;;3.98;60.71
62895;BME280;49204;44.916;37.998;2023-02-23T10:54:35;101982.05;;;4.02;59.87
62895;BME280;49204;44.916;37.998;2023-02-23T10:57:03;101986.22;;;3.81;58.09
62895;BME280;49204;44.916;37.998;2023-02-23T10:59:32;101984.53;;;3.86;58.73
62895;BME280;49204;44.916;37.998;2023-02-23T11:02:14;101988.31;;;4.22;58.58
62895;BME280;49204;44.916;37.998;2023-02-23T11:04:30;101977.14;;;5.58;57.15
62895;BME280;49204;44.916;37.998;2023-02-23T11:07:07;101968.67;;;7.02;54.89
62895;BME280;49204;44.916;37.998;2023-02-23T11:09:35;101968.05;;;7.97;54.13
62895;BME280;49204;44.916;37.998;2023-02-23T11:12:11;101972.46;;;7.92;53.90
62895;BME280;49204;44.916;37.998;2023-02-23T11:14:33;101973.91;;;7.05;54.29
62895;BME280;49204;44.916;37.998;2023-02-23T11:17:00;101977.58;;;6.47;54.88
62895;BME280;49204;44.916;37.998;2023-02-23T11:19:30;101983.69;;;5.69;54.78
62895;BME280;49204;44.916;37.998;2023-02-23T11:21:57;101981.75;;;4.91;54.38
62895;BME280;49204;44.916;37.998;2023-02-23T11:24:38;101973.44;;;4.82;54.77
62895;BME280;49204;44.916;37.998;2023-02-23T11:27:02;101967.13;;;5.88;54.68
62895;BME280;49204;44.916;37.998;2023-02-23T11:32:08;101977.16;;;6.41;52.89
62895;BME280;49204;44.916;37.998;2023-02-23T11:34:37;101985.48;;;6.11;53.39
62895;BME280;49204;44.916;37.998;2023-02-23T11:37:19;101984.12;;;6.36;52.97
62895;BME280;49204;44.916;37.998;2023-02-23T11:39:55;101990.55;;;6.90;51.73
62895;BME280;49204;44.916;37.998;2023-02-23T11:42:23;101984.46;;;6.86;50.72
62895;BME280;49204;44.916;37.998;2023-02-23T11:47:37;101997.21;;;8.14;50.51
62895;BME280;49204;44.916;37.998;2023-02-23T11:50:03;101995.97;;;8.55;50.09
62895;BME280;49204;44.916;37.998;2023-02-23T11:52:31;101988.86;;;8.63;49.51
62895;BME280;49204;44.916;37.998;2023-02-23T11:55:04;102000.77;;;8.54;48.91
62895;BME280;49204;44.916;37.998;2023-02-23T11:57:33;101998.97;;;8.60;49.63
62895;BME280;49204;44.916;37.998;2023-02-23T12:00:02;102015.91;;;8.24;49.69
62895;BME280;49204;44.916;37.998;2023-02-23T12:02:31;102020.27;;;7.67;49.48
62895;BME280;49204;44.916;37.998;2023-02-23T12:05:04;102022.28;;;7.17;50.70
62895;BME280;49204;44.916;37.998;2023-02-23T12:07:36;102023.35;;;6.57;51.18
62895;BME280;49204;44.916;37.998;2023-02-23T12:10:14;102021.22;;;6.00;51.57
62895;BME280;49204;44.916;37.998;2023-02-23T12:12:47;102024.13;;;5.46;51.77
62895;BME280;49204;44.916;37.998;2023-02-23T12:16:01;102031.33;;;4.89;51.32
62895;BME280;49204;44.916;37.998;2023-02-23T12:17:44;102041.51;;;4.49;52.50
62895;BME280;49204;44.916;37.998;2023-02-23T12:20:24;102034.25;;;4.11;52.11
62895;BME280;49204;44.916;37.998;2023-02-23T12:22:50;102039.96;;;3.70;51.36
62895;BME280;49204;44.916;37.998;2023-02-23T12:30:43;102048.02;;;3.14;52.12
62895;BME280;49204;44.916;37.998;2023-02-23T12:33:41;102051.93;;;2.84;53.14
62895;BME280;49204;44.916;37.998;2023-02-23T12:35:47;102055.48;;;2.59;53.80
62895;BME280;49204;44.916;37.998;2023-02-23T12:38:19;102057.37;;;2.41;54.13
62895;BME280;49204;44.916;37.998;2023-02-23T12:40:43;102054.74;;;2.40;53.83
62895;BME280;49204;44.916;37.998;2023-02-23T12:45:42;102057.95;;;2.50;54.02
62895;BME280;49204;44.916;37.998;2023-02-23T12:50:57;102056.91;;;2.98;52.27
62895;BME280;49204;44.916;37.998;2023-02-23T12:53:30;102062.08;;;3.29;53.30
62895;BME280;49204;44.916;37.998;2023-02-23T13:01:11;102069.81;;;3.61;52.76
62895;BME280;49204;44.916;37.998;2023-02-23T13:08:57;102077.54;;;3.16;49.21
62895;BME280;49204;44.916;37.998;2023-02-23T13:13:59;102077.95;;;3.14;51.76
62895;BME280;49204;44.916;37.998;2023-02-23T13:16:28;102086.77;;;3.25;52.62
62895;BME280;49204;44.916;37.998;2023-02-23T13:21:41;102090.55;;;3.16;50.71
62895;BME280;49204;44.916;37.998;2023-02-23T13:24:41;102084.31;;;3.03;48.78
62895;BME280;49204;44.916;37.998;2023-02-23T13:26:58;102091.47;;;2.88;51.27
62895;BME280;49204;44.916;37.998;2023-02-23T13:31:53;102087.59;;;2.61;50.16
62895;BME280;49204;44.916;37.998;2023-02-23T13:34:29;102093.55;;;2.54;51.58
62895;BME280;49204;44.916;37.998;2023-02-23T13:36:57;102085.66;;;2.48;52.08
62895;BME280;49204;44.916;37.998;2023-02-23T13:39:39;102099.72;;;2.33;52.14
62895;BME280;49204;44.916;37.998;2023-02-23T13:42:14;102101.59;;;2.16;48.83
62895;BME280;49204;44.916;37.998;2023-02-23T13:49:43;102115.12;;;1.32;51.37
62895;BME280;49204;44.916;37.998;2023-02-23T13:52:14;102114.84;;;1.20;52.28
62895;BME280;49204;44.916;37.998;2023-02-23T13:54:40;102124.16;;;1.10;52.44
62895;BME280;49204;44.916;37.998;2023-02-23T13:57:12;102123.48;;;1.00;52.96
62895;BME280;49204;44.916;37.998;2023-02-23T13:59:43;102124.06;;;1.05;53.12
62895;BME280;49204;44.916;37.998;2023-02-23T14:02:19;102125.80;;;1.06;52.84
62895;BME280;49204;44.916;37.998;2023-02-23T14:04:45;102127.73;;;1.15;52.45
62895;BME280;49204;44.916;37.998;2023-02-23T14:07:17;102123.80;;;1.13;52.82
62895;BME280;49204;44.916;37.998;2023-02-23T14:10:03;102120.73;;;1.11;53.22
62895;BME280;49204;44.916;37.998;2023-02-23T14:12:41;102131.85;;;1.05;53.10
62895;BME280;49204;44.916;37.998;2023-02-23T14:17:54;102134.16;;;0.93;53.44
62895;BME280;49204;44.916;37.998;2023-02-23T14:28:25;102142.95;;;0.46;53.72
62895;BME280;49204;44.916;37.998;2023-02-23T14:31:00;102144.92;;;0.38;52.68
62895;BME280;49204;44.916;37.998;2023-02-23T14:41:40;102154.41;;;0.05;54.51
62895;BME280;49204;44.916;37.998;2023-02-23T14:44:51;102159.81;;;-0.04;54.27
62895;BME280;49204;44.916;37.998;2023-02-23T14:49:19;102165.52;;;-0.31;54.87